createdAt,value
2023-01-26T00:00:01.421Z,101751.34
2023-01-26T00:02:46.603Z,101741.72
2023-01-26T00:05:32.014Z,101750.41
2023-01-26T00:08:17.742Z,101755.31
2023-01-26T00:11:07.417Z,101753.75
2023-01-26T00:13:53.637Z,101752.81
2023-01-26T00:16:38.933Z,101763.63
2023-01-26T00:19:23.797Z,101760.81
2023-01-26T00:22:08.563Z,101758.41
2023-01-26T00:24:53.909Z,101752.06
2023-01-26T00:27:39.191Z,101746.25
2023-01-26T00:30:24.463Z,101744.94
2023-01-26T00:33:09.637Z,101743.28
2023-01-26T00:35:55.069Z,101732.53
2023-01-26T00:38:41.380Z,101736.63
2023-01-26T00:41:26.517Z,101741.25
2023-01-26T00:44:11.688Z,101734.28
2023-01-26T00:46:56.891Z,101727.19
2023-01-26T00:49:42.212Z,101724.25
2023-01-26T00:52:27.213Z,101730.44
2023-01-26T00:55:12.175Z,101724.25
2023-01-26T00:57:57.081Z,101729.06
2023-01-26T01:00:42.387Z,101715.53
2023-01-26T01:03:27.944Z,101708.09
2023-01-26T01:06:13.459Z,101696.50
2023-01-26T01:08:59.717Z,101692.22
2023-01-26T01:11:44.471Z,101697.69
2023-01-26T01:14:29.313Z,101707.59
2023-01-26T01:17:14.364Z,101713.06
2023-01-26T01:19:59.293Z,101707.50
2023-01-26T01:22:44.643Z,101701.53
2023-01-26T01:25:29.479Z,101683.88
2023-01-26T01:28:14.785Z,101681.56
2023-01-26T01:31:03.377Z,101679.44
2023-01-26T01:33:48.395Z,101689.16
2023-01-26T01:36:33.307Z,101693.94
2023-01-26T01:39:18.105Z,101697.69
2023-01-26T01:42:03.034Z,101698.56
2023-01-26T01:45:19.603Z,101687.03
2023-01-26T01:48:13.085Z,101683.63
2023-01-26T01:51:03.971Z,101692.44
2023-01-26T01:53:51.808Z,101695.25
2023-01-26T01:56:39.350Z,101697.25
2023-01-26T01:59:25.293Z,101685.78
2023-01-26T02:02:11.298Z,101688.22
2023-01-26T02:05:00.483Z,101690.28
2023-01-26T02:07:46.519Z,101686.38
2023-01-26T02:10:32.791Z,101682.75
2023-01-26T02:13:20.076Z,101674.75
2023-01-26T02:16:05.788Z,101662.69
2023-01-26T02:18:50.683Z,101659.66
2023-01-26T02:21:35.602Z,101666.34
2023-01-26T02:24:32.743Z,101660.94
2023-01-26T02:27:18.319Z,101671.56
2023-01-26T02:30:04.987Z,101673.59
2023-01-26T02:32:50.269Z,101667.03
2023-01-26T02:35:37.937Z,101670.59
2023-01-26T02:38:28.806Z,101676.41
2023-01-26T02:41:16.897Z,101670.69
2023-01-26T02:44:04.648Z,101663.63
2023-01-26T02:46:49.859Z,101669.69
2023-01-26T02:49:35.201Z,101667.16
2023-01-26T02:52:22.946Z,101660.69
2023-01-26T02:55:08.787Z,101660.19
2023-01-26T02:57:57.322Z,101649.53
2023-01-26T03:00:42.675Z,101656.72
2023-01-26T03:03:29.024Z,101655.28
2023-01-26T03:06:15.238Z,101659.50
2023-01-26T03:09:00.598Z,101663.06
2023-01-26T03:11:45.415Z,101666.84
2023-01-26T03:14:31.071Z,101668.25
2023-01-26T03:17:16.271Z,101673.22
2023-01-26T03:20:02.009Z,101678.94
2023-01-26T03:22:47.323Z,101674.75
2023-01-26T03:25:32.684Z,101669.78
2023-01-26T03:28:18.197Z,101671.06
2023-01-26T03:31:07.191Z,101669.06
2023-01-26T03:33:52.076Z,101665.25
2023-01-26T03:36:37.595Z,101666.78
2023-01-26T03:39:22.714Z,101661.19
2023-01-26T03:42:08.019Z,101665.63
2023-01-26T03:44:53.175Z,101664.75
2023-01-26T03:47:38.593Z,101652.56
2023-01-26T03:50:24.095Z,101651.31
2023-01-26T03:53:17.441Z,101644.47
2023-01-26T03:56:04.977Z,101647.25
2023-01-26T03:58:58.336Z,101649.16
2023-01-26T04:01:47.352Z,101636.31
2023-01-26T04:04:33.088Z,101638.72
2023-01-26T04:07:18.494Z,101651.31
2023-01-26T04:10:03.647Z,101654.94
2023-01-26T04:12:48.940Z,101657.75
2023-01-26T04:15:36.113Z,101652.16
2023-01-26T04:18:21.543Z,101648.06
2023-01-26T04:21:07.541Z,101650.50
2023-01-26T04:23:53.584Z,101648.69
2023-01-26T04:26:38.894Z,101646.19
2023-01-26T04:29:24.496Z,101648.06
2023-01-26T04:32:09.724Z,101638.94
2023-01-26T04:34:55.135Z,101631.84
2023-01-26T04:37:40.934Z,101633.28
2023-01-26T04:40:26.047Z,101628.84
2023-01-26T04:43:11.210Z,101626.94
2023-01-26T04:46:07.559Z,101624.41
2023-01-26T04:48:52.892Z,101608.97
2023-01-26T04:51:38.106Z,101613.28
2023-01-26T04:54:23.399Z,101615.16
2023-01-26T04:57:08.994Z,101617.19
2023-01-26T04:59:54.195Z,101616.56
2023-01-26T05:02:38.951Z,101621.66
2023-01-26T05:05:23.884Z,101615.91
2023-01-26T05:08:09.251Z,101628.72
2023-01-26T05:10:54.598Z,101627.56
2023-01-26T05:13:40.054Z,101631.75
2023-01-26T05:16:26.142Z,101632.50
2023-01-26T05:19:11.694Z,101631.47
2023-01-26T05:21:56.724Z,101637.03
2023-01-26T05:24:45.015Z,101635.13
2023-01-26T05:27:30.566Z,101626.38
2023-01-26T05:30:16.418Z,101623.13
2023-01-26T05:33:03.227Z,101631.22
2023-01-26T05:35:49.184Z,101631.16
2023-01-26T05:38:34.681Z,101627.09
2023-01-26T05:41:20.096Z,101630.41
2023-01-26T05:44:05.312Z,101627.19
2023-01-26T05:46:53.602Z,101640.66
2023-01-26T05:49:39.170Z,101624.63
2023-01-26T05:52:24.646Z,101627.66
2023-01-26T05:55:10.210Z,101622.34
2023-01-26T05:57:55.400Z,101616.63
2023-01-26T06:00:40.771Z,101614.22
2023-01-26T06:03:26.076Z,101628.38
2023-01-26T06:06:10.886Z,101621.84
2023-01-26T06:08:56.439Z,101626.66
2023-01-26T06:11:42.043Z,101625.63
2023-01-26T06:14:27.328Z,101626.38
2023-01-26T06:17:14.604Z,101627.41
2023-01-26T06:19:59.846Z,101627.50
2023-01-26T06:22:44.881Z,101627.31
2023-01-26T06:25:29.922Z,101625.75
2023-01-26T06:28:14.899Z,101632.09
2023-01-26T06:31:04.299Z,101632.97
2023-01-26T06:33:50.106Z,101638.16
2023-01-26T06:36:35.103Z,101632.97
2023-01-26T06:39:20.047Z,101631.59
2023-01-26T06:42:05.346Z,101631.22
2023-01-26T06:44:50.742Z,101635.50
2023-01-26T06:47:36.982Z,101639.06
2023-01-26T06:50:30.964Z,101636.84
2023-01-26T06:53:33.011Z,101640.66
2023-01-26T06:56:21.377Z,101650.59
2023-01-26T06:59:06.818Z,101646.16
2023-01-26T07:01:51.801Z,101634.97
2023-01-26T07:04:36.837Z,101632.50
2023-01-26T07:07:21.762Z,101634.78
2023-01-26T07:10:07.377Z,101632.28
2023-01-26T07:12:52.386Z,101637.56
2023-01-26T07:15:37.235Z,101638.34
2023-01-26T07:18:22.476Z,101635.91
2023-01-26T07:21:11.334Z,101632.78
2023-01-26T07:23:56.479Z,101634.00
2023-01-26T07:26:41.514Z,101632.34
2023-01-26T07:29:26.420Z,101635.94
2023-01-26T07:32:11.993Z,101639.09
2023-01-26T07:34:57.105Z,101637.56
2023-01-26T07:37:43.519Z,101645.59
2023-01-26T07:40:28.630Z,101641.91
2023-01-26T07:43:14.524Z,101638.88
2023-01-26T07:45:59.415Z,101643.19
2023-01-26T07:48:44.243Z,101643.16
2023-01-26T07:51:29.200Z,101642.66
2023-01-26T07:54:14.581Z,101654.44
2023-01-26T07:57:00.233Z,101654.34
2023-01-26T07:59:45.394Z,101653.06
2023-01-26T08:02:31.425Z,101653.31
2023-01-26T08:05:16.942Z,101655.31
2023-01-26T08:08:01.943Z,101659.38
2023-01-26T08:10:46.789Z,101662.69
2023-01-26T08:13:35.822Z,101665.75
2023-01-26T08:16:21.515Z,101657.66
2023-01-26T08:19:06.743Z,101666.00
2023-01-26T08:21:51.468Z,101661.06
2023-01-26T08:24:36.492Z,101659.91
2023-01-26T08:27:21.478Z,101666.22
2023-01-26T08:30:07.617Z,101672.69
2023-01-26T08:32:52.689Z,101665.97
2023-01-26T08:35:37.521Z,101668.41
2023-01-26T08:38:22.551Z,101675.47
2023-01-26T08:41:07.641Z,101665.66
2023-01-26T08:43:52.923Z,101661.13
2023-01-26T08:46:38.460Z,101657.94
2023-01-26T08:49:24.806Z,101662.72
2023-01-26T08:52:09.991Z,101649.84
2023-01-26T08:54:54.779Z,101672.16
2023-01-26T08:57:39.628Z,101669.88
2023-01-26T09:00:25.144Z,101670.09
2023-01-26T09:03:10.436Z,101677.72
2023-01-26T09:05:59.963Z,101675.28
2023-01-26T09:08:45.469Z,101672.09
2023-01-26T09:11:30.774Z,101671.47
2023-01-26T09:14:15.558Z,101671.38
2023-01-26T09:17:00.487Z,101681.38
2023-01-26T09:19:46.045Z,101676.22
2023-01-26T09:22:31.489Z,101676.22
2023-01-26T09:25:16.758Z,101673.03
2023-01-26T09:28:05.536Z,101681.13
2023-01-26T09:30:50.956Z,101674.63
2023-01-26T09:33:36.851Z,101678.94
2023-01-26T09:36:22.133Z,101678.59
2023-01-26T09:39:07.643Z,101685.97
2023-01-26T09:42:05.269Z,101691.53
2023-01-26T09:45:29.141Z,101689.78
2023-01-26T09:48:20.273Z,101678.13
2023-01-26T09:51:20.996Z,101691.44
2023-01-26T09:54:24.247Z,101681.03
2023-01-26T09:57:16.206Z,101679.28
2023-01-26T10:00:25.809Z,101677.88
2023-01-26T10:03:22.734Z,101677.88
2023-01-26T10:06:21.238Z,101671.09
2023-01-26T10:09:28.319Z,101671.13
2023-01-26T10:12:19.291Z,101658.28
2023-01-26T10:15:15.912Z,101661.56
2023-01-26T10:18:05.936Z,101654.38
2023-01-26T10:20:55.370Z,101653.88
2023-01-26T10:23:47.956Z,101644.16
2023-01-26T10:26:33.693Z,101651.84
2023-01-26T10:29:18.895Z,101655.69
2023-01-26T10:32:04.215Z,101648.06
2023-01-26T10:34:51.183Z,101655.09
2023-01-26T10:37:36.726Z,101655.38
2023-01-26T10:40:22.114Z,101649.81
2023-01-26T10:43:17.681Z,101647.09
2023-01-26T10:46:04.171Z,101648.88
2023-01-26T10:48:58.142Z,101637.50
2023-01-26T10:52:06.298Z,101637.81
2023-01-26T10:55:09.155Z,101629.44
2023-01-26T10:57:54.682Z,101634.63
2023-01-26T11:00:41.053Z,101632.06
2023-01-26T11:03:27.527Z,101636.22
2023-01-26T11:06:17.427Z,101625.94
2023-01-26T11:09:19.620Z,101623.69
2023-01-26T11:12:04.987Z,101622.31
2023-01-26T11:15:01.917Z,101619.22
2023-01-26T11:17:59.256Z,101622.03
2023-01-26T11:21:09.091Z,101617.56
2023-01-26T11:24:07.634Z,101614.38
2023-01-26T11:27:34.082Z,101612.56
2023-01-26T11:30:43.671Z,101616.84
2023-01-26T11:33:31.927Z,101607.63
2023-01-26T11:36:35.892Z,101605.16
2023-01-26T11:39:54.103Z,101598.91
2023-01-26T11:42:51.713Z,101592.81
2023-01-26T11:45:36.753Z,101591.50
2023-01-26T11:48:38.106Z,101583.44
2023-01-26T11:51:30.740Z,101582.22
2023-01-26T11:54:42.610Z,101581.47
2023-01-26T11:58:01.384Z,101573.38
2023-01-26T12:00:46.734Z,101567.84
2023-01-26T12:03:46.735Z,101574.03
2023-01-26T12:06:37.811Z,101564.09
2023-01-26T12:09:42.871Z,101559.88
2023-01-26T12:12:33.942Z,101563.19
2023-01-26T12:15:32.842Z,101561.19
2023-01-26T12:18:29.892Z,101567.38
2023-01-26T12:21:21.155Z,101554.66
2023-01-26T12:24:35.736Z,101546.06
2023-01-26T12:27:55.026Z,101539.53
2023-01-26T12:30:48.574Z,101534.09
2023-01-26T12:33:35.140Z,101535.44
2023-01-26T12:36:40.020Z,101526.13
2023-01-26T12:39:34.551Z,101523.00
2023-01-26T12:42:39.693Z,101513.84
2023-01-26T12:45:32.526Z,101518.06
2023-01-26T12:48:29.759Z,101521.16
2023-01-26T12:51:22.108Z,101520.47
2023-01-26T12:54:36.437Z,101519.16
2023-01-26T12:57:27.324Z,101510.06
2023-01-26T13:00:22.536Z,101508.53
2023-01-26T13:03:19.316Z,101510.19
2023-01-26T13:06:10.685Z,101508.56
2023-01-26T13:08:58.714Z,101508.22
2023-01-26T13:11:45.191Z,101507.09
2023-01-26T13:14:30.264Z,101508.66
2023-01-26T13:17:15.775Z,101507.63
2023-01-26T13:20:15.828Z,101504.91
2023-01-26T13:23:00.961Z,101503.25
2023-01-26T13:26:10.227Z,101509.84
2023-01-26T13:29:27.326Z,101507.88
2023-01-26T13:32:36.070Z,101509.56
2023-01-26T13:35:24.182Z,101506.56
2023-01-26T13:38:34.115Z,101507.88
2023-01-26T13:41:20.763Z,101515.72
2023-01-26T13:44:17.573Z,101522.03
2023-01-26T13:47:12.276Z,101519.91
2023-01-26T13:49:57.045Z,101514.81
2023-01-26T13:52:42.205Z,101516.28
2023-01-26T13:55:33.055Z,101521.13
2023-01-26T13:58:18.977Z,101518.16
2023-01-26T14:01:11.299Z,101519.03
2023-01-26T14:04:05.237Z,101519.69
2023-01-26T14:07:00.943Z,101518.38
2023-01-26T14:09:54.726Z,101522.38
2023-01-26T14:12:46.719Z,101525.03
2023-01-26T14:15:33.075Z,101523.00
2023-01-26T14:18:21.731Z,101531.00
2023-01-26T14:21:19.696Z,101518.50
2023-01-26T14:24:09.319Z,101521.81
2023-01-26T14:26:55.073Z,101519.41
2023-01-26T14:29:40.147Z,101528.91
2023-01-26T14:32:26.396Z,101522.03
2023-01-26T14:35:20.653Z,101531.31
2023-01-26T14:38:12.511Z,101527.03
2023-01-26T14:41:00.026Z,101536.53
2023-01-26T14:43:45.682Z,101533.34
2023-01-26T14:46:35.309Z,101538.63
2023-01-26T14:49:56.173Z,101541.72
2023-01-26T14:52:45.210Z,101544.69
2023-01-26T14:55:36.687Z,101541.81
2023-01-26T14:58:28.708Z,101546.72
2023-01-26T15:01:24.954Z,101545.25
2023-01-26T15:04:16.179Z,101548.81
2023-01-26T15:07:32.208Z,101557.75
2023-01-26T15:10:38.304Z,101551.22
2023-01-26T15:13:25.380Z,101546.59
2023-01-26T15:16:21.729Z,101553.66
2023-01-26T15:19:07.151Z,101559.09
2023-01-26T15:21:53.209Z,101559.31
2023-01-26T15:24:38.303Z,101555.13
2023-01-26T15:27:23.158Z,101556.13
2023-01-26T15:30:16.877Z,101561.22
2023-01-26T15:33:02.628Z,101549.88
2023-01-26T15:35:58.011Z,101546.59
2023-01-26T15:38:43.206Z,101553.88
2023-01-26T15:41:29.372Z,101541.72
2023-01-26T15:44:17.491Z,101541.25
2023-01-26T15:47:02.775Z,101545.47
2023-01-26T15:49:48.102Z,101541.28
2023-01-26T15:52:33.153Z,101537.63
2023-01-26T15:55:26.137Z,101540.63
2023-01-26T15:58:11.329Z,101535.44
2023-01-26T16:00:57.214Z,101531.75
2023-01-26T16:03:42.792Z,101534.44
2023-01-26T16:06:30.973Z,101537.19
2023-01-26T16:09:16.359Z,101542.06
2023-01-26T16:12:01.871Z,101536.31
2023-01-26T16:14:47.247Z,101532.91
2023-01-26T16:17:32.742Z,101533.78
2023-01-26T16:20:18.760Z,101528.78
2023-01-26T16:23:06.618Z,101530.78
2023-01-26T16:25:52.533Z,101540.72
2023-01-26T16:28:37.630Z,101538.06
2023-01-26T16:31:25.818Z,101540.63
2023-01-26T16:34:11.389Z,101546.59
2023-01-26T16:36:56.576Z,101539.97
2023-01-26T16:39:41.631Z,101542.38
2023-01-26T16:42:27.067Z,101543.94
2023-01-26T16:45:26.057Z,101550.13
2023-01-26T16:48:16.193Z,101546.81
2023-01-26T16:51:18.468Z,101555.34
2023-01-26T16:54:03.409Z,101550.56
2023-01-26T16:56:48.545Z,101554.13
2023-01-26T16:59:33.880Z,101557.22
2023-01-26T17:02:25.906Z,101560.09
2023-01-26T17:05:15.592Z,101571.59
2023-01-26T17:08:00.723Z,101562.00
2023-01-26T17:10:59.859Z,101560.97
2023-01-26T17:13:47.449Z,101561.84
2023-01-26T17:16:32.304Z,101567.41
2023-01-26T17:19:17.569Z,101563.50
2023-01-26T17:22:03.169Z,101570.19
2023-01-26T17:24:48.612Z,101574.69
2023-01-26T17:27:34.464Z,101575.78
2023-01-26T17:30:19.689Z,101587.78
2023-01-26T17:33:05.167Z,101587.97
2023-01-26T17:35:59.445Z,101590.88
2023-01-26T17:38:45.356Z,101588.53
2023-01-26T17:41:30.389Z,101589.53
2023-01-26T17:44:15.347Z,101591.63
2023-01-26T17:47:00.799Z,101581.91
2023-01-26T17:49:46.450Z,101591.19
2023-01-26T17:52:31.999Z,101600.59
2023-01-26T17:55:16.995Z,101604.94
2023-01-26T17:58:02.141Z,101599.72
2023-01-26T18:00:47.514Z,101594.41
2023-01-26T18:03:33.003Z,101597.38
2023-01-26T18:06:18.205Z,101601.28
2023-01-26T18:09:03.204Z,101597.59
2023-01-26T18:11:48.496Z,101607.03
2023-01-26T18:14:33.221Z,101600.59
2023-01-26T18:17:18.172Z,101592.28
2023-01-26T18:20:05.308Z,101596.28
2023-01-26T18:22:50.524Z,101603.06
2023-01-26T18:25:35.395Z,101593.19
2023-01-26T18:28:20.285Z,101597.25
2023-01-26T18:31:17.258Z,101593.84
2023-01-26T18:34:04.118Z,101598.50
2023-01-26T18:36:49.272Z,101593.19
2023-01-26T18:39:34.161Z,101592.75
2023-01-26T18:42:19.606Z,101590.84
2023-01-26T18:45:04.874Z,101595.72
2023-01-26T18:47:50.054Z,101599.06
2023-01-26T18:50:35.445Z,101591.88
2023-01-26T18:53:20.401Z,101593.84
2023-01-26T18:56:07.029Z,101588.88
2023-01-26T18:58:53.396Z,101598.41
2023-01-26T19:01:39.102Z,101591.28
2023-01-26T19:04:24.213Z,101595.41
2023-01-26T19:07:09.659Z,101593.50
2023-01-26T19:09:54.842Z,101593.16
2023-01-26T19:12:39.832Z,101593.63
2023-01-26T19:15:25.062Z,101597.91
2023-01-26T19:18:10.473Z,101594.38
2023-01-26T19:20:57.661Z,101601.03
2023-01-26T19:23:43.611Z,101598.81
2023-01-26T19:26:29.106Z,101599.94
2023-01-26T19:29:14.090Z,101607.00
2023-01-26T19:31:59.083Z,101602.34
2023-01-26T19:34:44.213Z,101594.72
2023-01-26T19:37:29.185Z,101600.03
2023-01-26T19:40:14.573Z,101599.25
2023-01-26T19:43:00.089Z,101600.03
2023-01-26T19:45:49.506Z,101603.00
2023-01-26T19:48:34.795Z,101600.44
2023-01-26T19:51:23.094Z,101602.53
2023-01-26T19:54:08.658Z,101597.34
2023-01-26T19:56:53.805Z,101597.78
2023-01-26T19:59:39.551Z,101601.13
2023-01-26T20:02:25.044Z,101602.00
2023-01-26T20:05:10.671Z,101605.75
2023-01-26T20:07:55.705Z,101597.00
2023-01-26T20:10:40.941Z,101596.03
2023-01-26T20:13:26.339Z,101600.78
2023-01-26T20:16:11.123Z,101597.91
2023-01-26T20:18:57.994Z,101602.22
2023-01-26T20:21:43.045Z,101601.84
2023-01-26T20:24:28.569Z,101602.31
2023-01-26T20:27:13.828Z,101603.47
2023-01-26T20:29:59.197Z,101602.31
2023-01-26T20:32:44.927Z,101603.84
2023-01-26T20:35:30.543Z,101600.41
2023-01-26T20:38:15.590Z,101601.75
2023-01-26T20:41:06.531Z,101605.41
2023-01-26T20:43:59.819Z,101607.19
2023-01-26T20:46:46.625Z,101608.53
2023-01-26T20:49:31.911Z,101600.53
2023-01-26T20:52:16.819Z,101605.84
2023-01-26T20:55:01.944Z,101606.72
2023-01-26T20:57:47.014Z,101604.84
2023-01-26T21:00:32.777Z,101603.50
2023-01-26T21:03:19.993Z,101588.09
2023-01-26T21:06:06.980Z,101593.88
2023-01-26T21:08:55.214Z,101601.28
2023-01-26T21:11:40.513Z,101592.53
2023-01-26T21:14:25.695Z,101593.94
2023-01-26T21:17:11.322Z,101595.63
2023-01-26T21:19:56.537Z,101597.50
2023-01-26T21:22:41.537Z,101594.75
2023-01-26T21:25:26.749Z,101594.31
2023-01-26T21:28:12.010Z,101592.66
2023-01-26T21:31:02.512Z,101590.53
2023-01-26T21:33:49.034Z,101582.59
2023-01-26T21:36:34.087Z,101587.00
2023-01-26T21:39:22.011Z,101571.25
2023-01-26T21:42:07.517Z,101577.16
2023-01-26T21:44:55.271Z,101572.50
2023-01-26T21:47:40.872Z,101578.19
2023-01-26T21:50:25.826Z,101573.06
2023-01-26T21:53:10.848Z,101572.63
2023-01-26T21:55:55.813Z,101562.88
2023-01-26T21:58:40.937Z,101565.66
2023-01-26T22:01:26.378Z,101567.28
2023-01-26T22:04:17.398Z,101573.19
2023-01-26T22:07:02.593Z,101571.06
2023-01-26T22:09:47.985Z,101575.28
2023-01-26T22:12:32.970Z,101582.38
2023-01-26T22:15:18.293Z,101574.94
2023-01-26T22:18:03.151Z,101580.78
2023-01-26T22:20:48.926Z,101583.66
2023-01-26T22:23:36.406Z,101581.66
2023-01-26T22:26:22.913Z,101584.28
2023-01-26T22:29:10.168Z,101581.22
2023-01-26T22:31:55.104Z,101583.56
2023-01-26T22:34:40.142Z,101584.44
2023-01-26T22:37:25.364Z,101583.09
2023-01-26T22:40:11.415Z,101593.03
2023-01-26T22:42:56.788Z,101588.59
2023-01-26T22:45:42.400Z,101593.97
2023-01-26T22:48:27.645Z,101595.78
2023-01-26T22:51:18.002Z,101607.94
2023-01-26T22:54:04.440Z,101607.06
2023-01-26T22:56:49.661Z,101620.75
2023-01-26T22:59:34.759Z,101613.56
2023-01-26T23:02:19.873Z,101615.50
2023-01-26T23:05:05.448Z,101619.47
2023-01-26T23:07:50.916Z,101611.81
2023-01-26T23:10:36.276Z,101608.41
2023-01-26T23:13:21.551Z,101617.16
2023-01-26T23:16:07.012Z,101614.03
2023-01-26T23:18:54.023Z,101618.34
2023-01-26T23:21:39.322Z,101610.81
2023-01-26T23:24:24.383Z,101604.44
2023-01-26T23:27:09.550Z,101605.91
2023-01-26T23:29:54.439Z,101610.03
2023-01-26T23:32:39.344Z,101602.28
2023-01-26T23:35:26.443Z,101609.06
2023-01-26T23:38:11.818Z,101601.59
2023-01-26T23:40:57.722Z,101609.81
2023-01-26T23:43:43.202Z,101611.81
2023-01-26T23:46:28.159Z,101617.19
2023-01-26T23:49:13.404Z,101612.56
2023-01-26T23:51:58.205Z,101624.75
2023-01-26T23:54:43.356Z,101618.09
2023-01-26T23:57:28.603Z,101615.59
